To NAV CANADA Home Page Login to a new session Search on AWWS site Disclaimer Vers la page française équivalente Tips FAQ What's new on the site To the Forecasts and Observations / NOTAM section To "File a Flight Plan" website Publications and other links Update of the User's profile FIC Telephone Numbers My Weather Data Folder Route Weather Data Regional Weather Data Local Weather Data To the Forecasts and Observations / NOTAM section
Request Generated 03/18/2019 at 20:05:33 UTC . Weather information available at that time is displayed.

METAR/TAF

TORONTO/BILLY BISHOP TORONTO CITY AIRPORT/ON    (show WxCam)

METAR CYTZ 182000Z AUTO 28013G19KT 240V330 9SM FEW060 03/M10 A3026 RMK SLP251=
METAR CYTZ 181900Z AUTO 30016KT 240V310 9SM FEW065 03/M09 A3026 RMK SLP251=
METAR CYTZ 181800Z AUTO 27016G23KT 9SM BKN047 BKN055 BKN073 03/M07 A3026 RMK SLP253=

TAF AMD CYTZ 181940Z 1820/1920 29012G22KT P6SM SCT050 TEMPO 1820/1823
BKN050
FM182300 28010KT P6SM FEW060
FM190300 27008KT P6SM BKN070 TEMPO 1904/1908 2SM -SHSN BKN020
OVC070
FM190800 26005KT P6SM FEW030 FEW060
FM191500 29008KT P6SM SCT030 BKN070
FM191800 VRB03KT 4SM -SHRASN BKN030 BKN060 PROB30 1918/1920 2SM
-SHSNRA
RMK FCST BASED ON AUTO OBS. NXT FCST BY 190200Z=
Your time UTC time
Weather data provided by Environment Canada and NAV CANADA